Time;durP1;ratioP1;P1;durP2;ratioP2;P2;SDS_P1;SDS_P2;PMS_P1;PMS_P2;Temp;Humidity;BMP_temperature;BMP_pressure;BME280_temperature;BME280_humidity;BME280_pressure;Samples;Min_cycle;Max_cycle;Signal;HPM_P1;HPM_P2
2022/06/04 00:01:28;;;;;;;;;;;;;;;15.36;97.40;99281.69;7862422;30;19930;-75
2022/06/04 00:05:31;;;;;;;;;;;;;;;15.36;97.47;99291.31;7863859;30;19933;-74
2022/06/04 00:09:32;;;;;;;;;;;;;;;15.37;98.17;99299.13;7860484;30;19937;-75
2022/06/04 00:17:54;;;;;;;;;;;;;;;15.37;99.34;99306.09;7858581;30;20304;-75
2022/06/04 00:21:56;;;;;;;;;;;;;;;15.39;99.81;99310.41;7867111;30;19938;-75
2022/06/04 00:25:59;;;;;;;;;;;;;;;15.42;99.94;99309.47;7859399;30;19983;-75
2022/06/04 00:30:01;;;;;;;;;;;;;;;15.45;99.96;99311.16;7861260;30;19973;-75
2022/06/04 00:34:03;;;;;;;;;;;;;;;15.44;100.00;99320.78;7858817;30;19977;-75
2022/06/04 00:38:05;;;;;;;;;;;;;;;15.40;100.00;99326.97;7866059;30;20052;-75
2022/06/04 00:42:12;;;;;;;;;;;;;;;15.38;100.00;99328.75;7867938;30;19965;-75
2022/06/04 00:46:32;;;;;;;;;;;;;;;15.35;99.96;99313.13;7861714;30;19934;-75
2022/06/04 00:50:36;;;;;;;;;;;;;;;15.30;99.87;99317.63;7865064;30;19934;-75
2022/06/04 00:54:37;;;;;;;;;;;;;;;15.26;99.61;99315.97;7869445;30;20346;-75
2022/06/04 00:58:42;;;;;;;;;;;;;;;15.27;99.20;99309.88;7858282;30;20287;-75
2022/06/04 01:02:52;;;;;;;;;;;;;;;15.24;98.94;99302.94;7861596;30;20028;-75
2022/06/04 01:06:58;;;;;;;;;;;;;;;15.24;98.97;99286.38;7867359;30;19988;-75
2022/06/04 01:11:02;;;;;;;;;;;;;;;15.18;99.15;99273.47;7872762;30;19949;-75
2022/06/04 01:15:13;;;;;;;;;;;;;;;15.14;98.71;99269.22;7866032;30;20361;-75
2022/06/04 01:19:20;;;;;;;;;;;;;;;15.10;98.35;99271.91;7868942;30;19965;-75
2022/06/04 01:23:33;;;;;;;;;;;;;;;15.05;98.36;99278.13;7873682;30;19930;-75
2022/06/04 01:27:47;;;;;;;;;;;;;;;15.04;99.31;99277.28;7864354;30;19930;-75
2022/06/04 01:32:11;;;;;;;;;;;;;;;15.08;99.61;99271.09;7864537;30;19930;-75
2022/06/04 01:36:42;;;;;;;;;;;;;;;15.04;99.58;99279.03;7863161;30;19978;-75
2022/06/04 01:41:05;;;;;;;;;;;;;;;14.98;99.45;99280.03;7877079;30;20546;-75
2022/06/04 01:45:09;;;;;;;;;;;;;;;14.92;99.28;99285.44;7869425;30;19930;-75
2022/06/04 01:49:14;;;;;;;;;;;;;;;14.92;99.70;99277.59;7863241;30;19972;-75
2022/06/04 01:53:16;;;;;;;;;;;;;;;14.94;100.00;99278.41;7864627;30;20028;-75
2022/06/04 01:57:26;;;;;;;;;;;;;;;14.97;100.00;99267.00;7868436;30;19973;-75
2022/06/04 02:01:29;;;;;;;;;;;;;;;15.01;100.00;99269.50;7869562;30;19929;-75
2022/06/04 02:05:34;;;;;;;;;;;;;;;14.97;100.00;99264.41;7871146;30;20605;-75
2022/06/04 02:09:37;;;;;;;;;;;;;;;14.95;100.00;99263.56;7872062;30;19965;-76
2022/06/04 02:13:39;;;;;;;;;;;;;;;14.90;100.00;99263.69;7872780;30;19951;-75
2022/06/04 02:17:42;;;;;;;;;;;;;;;14.86;99.97;99262.03;7869258;30;19930;-75
2022/06/04 02:21:43;;;;;;;;;;;;;;;14.85;100.00;99249.84;7876649;30;20008;-75
2022/06/04 02:25:45;;;;;;;;;;;;;;;14.82;99.46;99247.31;7870453;30;20343;-75
2022/06/04 02:29:46;;;;;;;;;;;;;;;14.77;99.50;99249.19;7871094;30;20029;-75
2022/06/04 02:33:53;;;;;;;;;;;;;;;14.75;99.17;99256.22;7874908;30;20415;-75
2022/06/04 02:38:01;;;;;;;;;;;;;;;14.69;98.66;99269.41;7867829;30;19996;-76
2022/06/04 02:42:09;;;;;;;;;;;;;;;14.60;98.43;99283.56;7887184;30;20045;-75
2022/06/04 02:46:14;;;;;;;;;;;;;;;14.57;98.90;99275.78;7874519;30;19976;-76
2022/06/04 02:50:24;;;;;;;;;;;;;;;14.60;99.46;99272.25;7872966;30;19940;-75
2022/06/04 02:54:29;;;;;;;;;;;;;;;14.58;99.70;99268.81;7875206;30;20020;-76
2022/06/04 02:58:31;;;;;;;;;;;;;;;14.54;99.76;99257.53;7874399;30;19930;-75
2022/06/04 03:02:34;;;;;;;;;;;;;;;14.54;99.84;99269.75;7868544;30;19973;-75
2022/06/04 03:06:36;;;;;;;;;;;;;;;14.54;99.77;99264.50;7855697;30;19930;-75
2022/06/04 03:10:37;;;;;;;;;;;;;;;14.46;99.50;99262.09;7868360;30;20296;-75
2022/06/04 03:14:39;;;;;;;;;;;;;;;14.41;98.73;99272.63;7861796;30;19976;-75
2022/06/04 03:18:41;;;;;;;;;;;;;;;14.40;98.95;99272.66;7865763;30;20339;-75
2022/06/04 03:22:42;;;;;;;;;;;;;;;14.38;99.08;99279.66;7868442;30;19930;-75
2022/06/04 03:26:44;;;;;;;;;;;;;;;14.41;99.53;99290.91;7852448;30;20368;-76
2022/06/04 03:30:45;;;;;;;;;;;;;;;14.43;99.23;99288.25;7866436;30;20558;-75
2022/06/04 03:34:46;;;;;;;;;;;;;;;14.43;99.49;99299.59;7867677;30;20015;-77
2022/06/04 03:38:48;;;;;;;;;;;;;;;14.46;99.60;99298.66;7861857;30;19952;-76
2022/06/04 03:42:50;;;;;;;;;;;;;;;14.47;100.00;99284.72;7865503;30;19961;-76
2022/06/04 03:46:53;;;;;;;;;;;;;;;14.55;100.00;99279.34;7868451;30;19984;-76
2022/06/04 03:50:54;;;;;;;;;;;;;;;14.59;100.00;99294.03;7863965;30;19945;-76
2022/06/04 03:54:57;;;;;;;;;;;;;;;14.57;100.00;99286.25;7848105;30;19930;-76
2022/06/04 03:58:58;;;;;;;;;;;;;;;14.63;100.00;99285.22;7863525;30;19996;-77
2022/06/04 04:03:01;;;;;;;;;;;;;;;14.73;100.00;99291.97;7866917;30;20746;-77
2022/06/04 04:07:03;;;;;;;;;;;;;;;14.77;100.00;99304.94;7862788;30;19940;-76
2022/06/04 04:11:06;;;;;;;;;;;;;;;14.82;100.00;99317.91;7868196;30;20469;-76
2022/06/04 04:15:08;;;;;;;;;;;;;;;14.85;100.00;99322.19;7840305;30;20033;-77
2022/06/04 04:19:10;;;;;;;;;;;;;;;14.79;100.00;99329.28;7843333;30;19930;-76
2022/06/04 04:23:11;;;;;;;;;;;;;;;14.79;100.00;99338.88;7840776;30;19953;-76
2022/06/04 04:27:14;;;;;;;;;;;;;;;14.79;100.00;99339.75;7847160;30;19930;-76
2022/06/04 04:31:17;;;;;;;;;;;;;;;14.81;100.00;99345.78;7852103;30;20029;-76
2022/06/04 04:35:24;;;;;;;;;;;;;;;14.86;100.00;99342.22;7842851;30;19936;-75
2022/06/04 04:39:26;;;;;;;;;;;;;;;14.92;100.00;99323.78;7861672;30;19960;-76
2022/06/04 04:43:28;;;;;;;;;;;;;;;14.99;100.00;99327.97;7861688;30;20355;-76
2022/06/04 04:47:29;;;;;;;;;;;;;;;15.03;100.00;99332.22;7831401;30;20432;-76
2022/06/04 04:51:31;;;;;;;;;;;;;;;15.08;100.00;99325.13;7844734;30;20165;-76
2022/06/04 04:55:33;;;;;;;;;;;;;;;15.08;100.00;99326.00;7847440;30;19930;-76
2022/06/04 04:59:35;;;;;;;;;;;;;;;15.10;100.00;99324.22;7847061;30;19934;-76
2022/06/04 05:03:36;;;;;;;;;;;;;;;15.14;100.00;99321.53;7845623;30;19936;-76
2022/06/04 05:07:39;;;;;;;;;;;;;;;15.17;100.00;99324.06;7861596;30;20033;-76
2022/06/04 05:11:40;;;;;;;;;;;;;;;15.20;100.00;99332.69;7847751;30;20473;-76
2022/06/04 05:15:47;;;;;;;;;;;;;;;15.19;100.00;99346.66;7845742;30;20000;-75
2022/06/04 05:19:49;;;;;;;;;;;;;;;15.24;100.00;99351.78;7846672;30;19941;-76
2022/06/04 05:23:53;;;;;;;;;;;;;;;15.30;100.00;99357.75;7846590;30;19970;-76
2022/06/04 05:27:54;;;;;;;;;;;;;;;15.37;100.00;99361.91;7844099;30;19934;-76
2022/06/04 05:31:57;;;;;;;;;;;;;;;15.44;100.00;99352.19;7844510;30;19965;-76
2022/06/04 05:35:58;;;;;;;;;;;;;;;15.52;100.00;99346.75;7845023;30;19934;-76
2022/06/04 05:40:00;;;;;;;;;;;;;;;15.58;100.00;99330.88;7845428;30;19973;-76
2022/06/04 05:44:02;;;;;;;;;;;;;;;15.66;100.00;99326.34;7843605;30;20108;-76
2022/06/04 05:48:03;;;;;;;;;;;;;;;15.69;100.00;99321.88;7843722;30;20287;-76
2022/06/04 05:52:05;;;;;;;;;;;;;;;15.71;99.97;99314.84;7843380;30;19961;-76
2022/06/04 05:56:13;;;;;;;;;;;;;;;15.75;100.00;99306.91;7852497;30;19930;-75
2022/06/04 06:00:15;;;;;;;;;;;;;;;15.83;100.00;99321.53;7845614;30;20283;-75
2022/06/04 06:04:17;;;;;;;;;;;;;;;16.01;100.00;99317.53;7842062;30;20369;-75
2022/06/04 06:08:18;;;;;;;;;;;;;;;16.22;100.00;99319.56;7844747;30;20349;-76
2022/06/04 06:12:21;;;;;;;;;;;;;;;16.36;100.00;99318.31;7842139;30;20516;-76
2022/06/04 06:16:23;;;;;;;;;;;;;;;16.45;100.00;99320.66;7841372;30;20336;-76
2022/06/04 06:20:25;;;;;;;;;;;;;;;16.58;99.81;99340.38;7840828;30;20049;-76
2022/06/04 06:24:26;;;;;;;;;;;;;;;16.71;99.31;99349.63;7825023;30;19938;-76
2022/06/04 06:28:28;;;;;;;;;;;;;;;16.76;98.35;99355.56;7839173;30;19931;-76
2022/06/04 06:32:29;;;;;;;;;;;;;;;16.80;98.31;99369.44;7839455;30;19940;-76
2022/06/04 06:36:30;;;;;;;;;;;;;;;16.86;98.05;99379.75;7839805;30;20535;-76
2022/06/04 06:40:34;;;;;;;;;;;;;;;16.89;97.51;99372.66;7841425;30;20021;-76
2022/06/04 06:44:36;;;;;;;;;;;;;;;16.96;97.76;99380.34;7839425;30;20044;-76
2022/06/04 06:48:39;;;;;;;;;;;;;;;17.04;97.15;99387.06;7837300;30;19956;-76
2022/06/04 06:52:40;;;;;;;;;;;;;;;17.10;97.82;99404.41;7851213;30;19936;-76
2022/06/04 06:56:42;;;;;;;;;;;;;;;17.17;97.27;99412.00;7852385;30;20024;-75
2022/06/04 07:00:44;;;;;;;;;;;;;;;17.31;97.29;99418.63;7856308;30;20641;-75
2022/06/04 07:04:45;;;;;;;;;;;;;;;17.47;96.89;99404.94;7866479;30;19944;-75
2022/06/04 07:08:46;;;;;;;;;;;;;;;17.62;95.76;99387.84;7867689;30;20342;-75
2022/06/04 07:12:48;;;;;;;;;;;;;;;17.80;95.23;99403.03;7866733;30;20028;-76
2022/06/04 07:16:57;;;;;;;;;;;;;;;17.96;94.12;99398.13;7866336;30;19931;-76
2022/06/04 07:20:59;;;;;;;;;;;;;;;18.12;93.30;99391.38;7867352;30;19929;-76
2022/06/04 07:25:01;;;;;;;;;;;;;;;18.23;92.30;99406.78;7848794;30;19930;-75
2022/06/04 07:29:02;;;;;;;;;;;;;;;18.34;91.49;99409.91;7867586;30;19933;-76
2022/06/04 07:33:04;;;;;;;;;;;;;;;18.42;90.17;99421.00;7861099;30;20232;-75
2022/06/04 07:37:07;;;;;;;;;;;;;;;18.53;89.87;99422.41;7858834;30;19941;-75
2022/06/04 07:41:14;;;;;;;;;;;;;;;18.61;88.93;99430.84;7862157;30;20017;-75
2022/06/04 07:45:16;;;;;;;;;;;;;;;18.72;88.08;99420.84;7862421;30;20402;-75
2022/06/04 07:49:18;;;;;;;;;;;;;;;18.92;88.50;99409.56;7850425;30;19961;-76
2022/06/04 07:53:19;;;;;;;;;;;;;;;19.14;86.98;99399.06;7861753;30;19930;-75
2022/06/04 07:57:21;;;;;;;;;;;;;;;19.38;86.33;99395.44;7861200;30;20395;-76
2022/06/04 08:01:23;;;;;;;;;;;;;;;19.62;85.00;99393.63;7868274;30;19957;-75
2022/06/04 08:05:24;;;;;;;;;;;;;;;19.89;83.93;99392.47;7861828;30;19934;-75
2022/06/04 08:09:26;;;;;;;;;;;;;;;20.06;82.82;99385.63;7864054;30;19933;-75
2022/06/04 08:13:30;;;;;;;;;;;;;;;20.23;81.30;99386.59;7861680;30;20012;-75
2022/06/04 08:17:34;;;;;;;;;;;;;;;20.33;79.98;99397.63;7867314;30;19926;-75
2022/06/04 08:21:36;;;;;;;;;;;;;;;20.31;79.47;99415.28;7865569;30;19952;-75
2022/06/04 08:25:44;;;;;;;;;;;;;;;20.24;79.30;99434.91;7868584;30;19969;-75
2022/06/04 08:29:47;;;;;;;;;;;;;;;20.17;81.62;99441.41;7870535;30;20603;-76
2022/06/04 08:33:59;;;;;;;;;;;;;;;20.59;80.56;99443.97;7864205;30;19933;-75
2022/06/04 08:38:00;;;;;;;;;;;;;;;21.12;78.41;99446.81;7867790;30;20433;-76
2022/06/04 08:42:11;;;;;;;;;;;;;;;21.75;76.35;99449.13;7867937;30;19930;-76
2022/06/04 08:46:29;;;;;;;;;;;;;;;21.93;74.82;99450.84;7870283;30;19995;-76
2022/06/04 08:50:34;;;;;;;;;;;;;;;22.12;72.10;99458.75;7869813;30;19930;-76
2022/06/04 08:58:56;;;;;;;;;;;;;;;21.94;72.13;99463.16;7867153;30;19941;-76
2022/06/04 09:03:06;;;;;;;;;;;;;;;22.09;72.96;99463.34;7866844;30;19940;-76
2022/06/04 09:07:12;;;;;;;;;;;;;;;22.58;73.08;99464.31;7867865;30;20141;-76
2022/06/04 09:11:17;;;;;;;;;;;;;;;23.04;71.76;99468.06;7872702;30;19930;-76
2022/06/04 09:15:24;;;;;;;;;;;;;;;23.42;69.73;99462.44;7873187;30;19930;-76
2022/06/04 09:19:27;;;;;;;;;;;;;;;23.59;69.33;99459.72;7870133;30;20028;-76
2022/06/04 09:23:28;;;;;;;;;;;;;;;23.71;65.67;99452.88;7871034;30;20048;-76
2022/06/04 09:27:36;;;;;;;;;;;;;;;24.06;67.49;99462.31;7870400;30;19930;-76
2022/06/04 09:31:43;;;;;;;;;;;;;;;24.47;65.42;99464.31;7873026;30;19929;-76
2022/06/04 09:35:45;;;;;;;;;;;;;;;24.70;63.62;99461.13;7872710;30;19930;-76
2022/06/04 09:39:47;;;;;;;;;;;;;;;25.02;63.45;99463.63;7871859;30;19934;-76
2022/06/04 09:44:08;;;;;;;;;;;;;;;25.20;61.11;99459.81;7868412;30;19929;-75
2022/06/04 09:48:14;;;;;;;;;;;;;;;25.42;60.10;99461.09;7866077;30;20248;-74
2022/06/04 09:52:36;;;;;;;;;;;;;;;25.46;59.93;99457.28;7863961;30;19949;-75
2022/06/04 09:56:40;;;;;;;;;;;;;;;25.74;60.77;99446.59;7870983;30;20650;-75
2022/06/04 10:00:52;;;;;;;;;;;;;;;25.83;57.24;99450.44;7866707;30;19953;-75
2022/06/04 10:05:06;;;;;;;;;;;;;;;25.94;58.88;99449.75;7865846;30;19930;-75
2022/06/04 10:13:46;;;;;;;;;;;;;;;26.49;58.78;99450.41;7868374;30;19984;-75
2022/06/04 10:17:57;;;;;;;;;;;;;;;26.54;55.69;99444.75;7864101;30;20419;-74
2022/06/04 10:22:04;;;;;;;;;;;;;;;26.84;57.63;99449.75;7868359;30;19975;-74
2022/06/04 10:26:20;;;;;;;;;;;;;;;27.30;57.25;99446.50;7862831;30;19934;-75
2022/06/04 10:30:41;;;;;;;;;;;;;;;27.26;55.23;99437.00;7867774;30;19929;-74
2022/06/04 10:34:57;;;;;;;;;;;;;;;27.28;55.71;99438.59;7868279;30;20312;-74
2022/06/04 10:39:05;;;;;;;;;;;;;;;27.02;54.98;99434.28;7861879;30;20863;-74
2022/06/04 10:43:15;;;;;;;;;;;;;;;26.93;54.90;99441.13;7871522;30;19965;-74
2022/06/04 10:47:17;;;;;;;;;;;;;;;26.96;55.29;99429.38;7865743;30;20381;-74
2022/06/04 10:51:40;;;;;;;;;;;;;;;27.05;55.94;99410.94;7865320;30;19957;-74
2022/06/04 10:55:45;;;;;;;;;;;;;;;27.28;56.23;99416.41;7862718;30;19929;-74
2022/06/04 10:59:58;;;;;;;;;;;;;;;27.52;54.63;99411.13;7867509;30;19968;-74
2022/06/04 11:04:07;;;;;;;;;;;;;;;27.57;54.13;99409.81;7867997;30;19969;-73
2022/06/04 11:08:14;;;;;;;;;;;;;;;27.65;52.82;99410.13;7846781;30;19929;-74
2022/06/04 11:12:29;;;;;;;;;;;;;;;27.81;52.45;99409.81;7868177;30;19940;-74
2022/06/04 11:16:39;;;;;;;;;;;;;;;27.82;50.70;99414.16;7873625;30;19934;-75
2022/06/04 11:20:50;;;;;;;;;;;;;;;27.59;50.95;99407.00;7883506;30;20048;-74
2022/06/04 11:24:56;;;;;;;;;;;;;;;27.79;52.27;99403.72;7867044;30;19940;-74
2022/06/04 11:28:59;;;;;;;;;;;;;;;28.05;51.50;99404.44;7863884;30;19930;-74
2022/06/04 11:33:13;;;;;;;;;;;;;;;28.13;51.27;99411.84;7863258;30;19930;-75
2022/06/04 11:37:41;;;;;;;;;;;;;;;28.17;49.07;99405.31;7862588;30;19961;-75
2022/06/04 11:42:01;;;;;;;;;;;;;;;28.27;49.96;99409.03;7866973;30;19929;-74
2022/06/04 11:46:21;;;;;;;;;;;;;;;28.46;49.04;99411.13;7862342;30;19969;-74
2022/06/04 11:50:26;;;;;;;;;;;;;;;28.63;49.40;99410.66;7866918;30;19930;-74
2022/06/04 11:54:47;;;;;;;;;;;;;;;28.63;48.34;99409.78;7863200;30;19949;-74
2022/06/04 11:58:54;;;;;;;;;;;;;;;28.87;47.62;99406.06;7878476;30;19930;-74
2022/06/04 12:03:14;;;;;;;;;;;;;;;29.01;47.96;99404.09;7857257;30;20048;-74
2022/06/04 12:07:33;;;;;;;;;;;;;;;28.95;46.08;99400.09;7838867;30;20332;-74
2022/06/04 12:11:37;;;;;;;;;;;;;;;29.14;48.12;99404.81;7858332;30;19977;-74
2022/06/04 12:15:42;;;;;;;;;;;;;;;29.23;46.11;99401.38;7862475;30;19930;-74
2022/06/04 12:24:17;;;;;;;;;;;;;;;29.39;46.27;99396.50;7872396;30;20353;-74
2022/06/04 12:28:21;;;;;;;;;;;;;;;29.40;46.04;99395.50;7867610;30;20240;-74
2022/06/04 12:32:34;;;;;;;;;;;;;;;29.51;44.11;99405.38;7860718;30;19930;-74
2022/06/04 12:36:37;;;;;;;;;;;;;;;29.45;43.58;99396.03;7837240;30;19930;-74
2022/06/04 12:40:40;;;;;;;;;;;;;;;29.45;42.26;99396.03;7866047;30;20383;-74
2022/06/04 12:44:54;;;;;;;;;;;;;;;29.52;43.39;99399.03;7869669;30;19929;-74
2022/06/04 12:49:06;;;;;;;;;;;;;;;29.68;43.61;99390.59;7863576;30;19937;-74
2022/06/04 12:53:17;;;;;;;;;;;;;;;29.78;42.69;99394.19;7858199;30;19934;-74
2022/06/04 12:57:21;;;;;;;;;;;;;;;29.92;42.70;99383.19;7869138;30;20044;-74
2022/06/04 13:01:26;;;;;;;;;;;;;;;30.06;42.56;99382.88;7854434;30;19930;-75
2022/06/04 13:05:27;;;;;;;;;;;;;;;30.09;40.91;99373.75;7870386;30;20477;-75
2022/06/04 13:09:35;;;;;;;;;;;;;;;30.12;42.85;99381.50;7863379;30;20324;-75
2022/06/04 13:13:51;;;;;;;;;;;;;;;30.19;42.44;99384.53;7867587;30;19929;-74
2022/06/04 13:17:53;;;;;;;;;;;;;;;30.25;40.48;99392.88;7873116;30;19977;-74
2022/06/04 13:21:58;;;;;;;;;;;;;;;30.33;39.47;99394.88;7863144;30;19968;-71
2022/06/04 13:25:59;;;;;;;;;;;;;;;30.46;39.72;99397.38;7885799;30;19991;-72
2022/06/04 13:30:01;;;;;;;;;;;;;;;30.50;38.23;99390.75;7867038;30;19961;-72
2022/06/04 13:34:13;;;;;;;;;;;;;;;30.65;37.97;99390.28;7868615;30;19956;-72
2022/06/04 13:38:34;;;;;;;;;;;;;;;30.81;39.15;99391.63;7864655;30;19973;-72
2022/06/04 13:42:37;;;;;;;;;;;;;;;30.95;38.99;99391.28;7870457;30;19965;-72
2022/06/04 13:46:38;;;;;;;;;;;;;;;30.82;38.71;99390.66;7867442;30;20629;-71
2022/06/04 13:50:47;;;;;;;;;;;;;;;30.39;38.69;99394.38;7863389;30;19957;-72
2022/06/04 13:54:54;;;;;;;;;;;;;;;30.38;39.74;99387.31;7868308;30;19930;-71
2022/06/04 13:58:56;;;;;;;;;;;;;;;30.51;39.28;99371.00;7861741;30;20542;-74
2022/06/04 14:03:01;;;;;;;;;;;;;;;30.72;37.58;99376.38;7873041;30;19934;-74
2022/06/04 14:07:10;;;;;;;;;;;;;;;30.74;37.58;99374.41;7867527;30;19937;-74
2022/06/04 14:11:24;;;;;;;;;;;;;;;30.57;36.13;99370.50;7864583;30;20336;-73
2022/06/04 14:15:38;;;;;;;;;;;;;;;30.70;38.44;99370.28;7865469;30;19930;-73
2022/06/04 14:19:49;;;;;;;;;;;;;;;30.78;38.58;99367.78;7863494;30;19930;-72
2022/06/04 14:24:14;;;;;;;;;;;;;;;30.79;38.25;99356.91;7870072;30;20422;-72
2022/06/04 14:28:36;;;;;;;;;;;;;;;30.88;39.66;99363.28;7867389;30;19966;-72
2022/06/04 14:32:40;;;;;;;;;;;;;;;30.89;39.51;99371.22;7864468;30;19937;-74
2022/06/04 14:36:45;;;;;;;;;;;;;;;30.91;38.51;99361.19;7862784;30;20243;-74
2022/06/04 14:40:47;;;;;;;;;;;;;;;31.11;38.69;99359.41;7862269;30;20388;-74
2022/06/04 14:44:54;;;;;;;;;;;;;;;31.11;37.50;99364.78;7869749;30;20638;-73
2022/06/04 14:49:11;;;;;;;;;;;;;;;31.13;37.78;99372.69;7873727;30;20054;-74
2022/06/04 14:53:14;;;;;;;;;;;;;;;31.04;35.28;99357.41;7862937;30;19930;-73
2022/06/04 14:57:16;;;;;;;;;;;;;;;30.90;37.60;99346.09;7862437;30;19934;-74
2022/06/04 15:01:24;;;;;;;;;;;;;;;31.09;37.92;99333.72;7870627;30;20338;-74
2022/06/04 15:05:33;;;;;;;;;;;;;;;31.26;36.80;99344.66;7862437;30;19947;-74
2022/06/04 15:09:37;;;;;;;;;;;;;;;31.25;35.95;99344.78;7866923;30;20049;-74
2022/06/04 15:13:52;;;;;;;;;;;;;;;31.08;36.52;99335.56;7863820;30;19930;-74
2022/06/04 15:17:57;;;;;;;;;;;;;;;31.25;37.37;99329.53;7866105;30;19936;-74
2022/06/04 15:22:07;;;;;;;;;;;;;;;31.35;36.80;99324.16;7859497;30;20029;-74
2022/06/04 15:26:11;;;;;;;;;;;;;;;31.31;36.66;99316.53;7866565;30;19980;-74
2022/06/04 15:34:55;;;;;;;;;;;;;;;30.50;37.23;99311.19;7856029;30;19929;-74
2022/06/04 15:39:16;;;;;;;;;;;;;;;30.60;37.54;99297.84;7873043;30;20367;-74
2022/06/04 15:43:22;;;;;;;;;;;;;;;30.73;37.30;99303.00;7847542;30;20004;-73
2022/06/04 15:47:37;;;;;;;;;;;;;;;30.83;36.94;99299.34;7841142;30;19984;-74
2022/06/04 15:56:18;;;;;;;;;;;;;;;30.96;36.55;99277.63;7844968;30;19937;-73
2022/06/04 16:00:25;;;;;;;;;;;;;;;31.07;36.46;99271.31;7864697;30;19930;-74
2022/06/04 16:04:39;;;;;;;;;;;;;;;30.84;35.65;99276.91;7881814;30;20267;-72
2022/06/04 16:08:47;;;;;;;;;;;;;;;30.42;36.71;99278.88;7862678;30;20486;-72
2022/06/04 16:12:59;;;;;;;;;;;;;;;30.48;36.04;99278.31;7865553;30;19936;-72
2022/06/04 16:17:30;;;;;;;;;;;;;;;30.61;36.74;99278.09;7861907;30;19930;-72
2022/06/04 16:21:31;;;;;;;;;;;;;;;30.75;37.07;99267.03;7853415;30;20366;-73
2022/06/04 16:25:38;;;;;;;;;;;;;;;30.83;36.30;99267.16;7868242;30;19929;-74
2022/06/04 16:29:39;;;;;;;;;;;;;;;30.89;36.78;99273.81;7865902;30;19969;-74
2022/06/04 16:34:11;;;;;;;;;;;;;;;30.74;36.94;99281.41;7874613;30;19930;-74
2022/06/04 16:38:30;;;;;;;;;;;;;;;30.24;36.90;99276.00;7871865;29;20266;-74
2022/06/04 16:42:48;;;;;;;;;;;;;;;29.77;36.99;99280.91;7867855;30;19946;-74
2022/06/04 16:46:59;;;;;;;;;;;;;;;29.15;38.26;99276.31;7870388;30;19934;-73
2022/06/04 16:51:05;;;;;;;;;;;;;;;28.69;39.87;99276.53;7864634;30;20029;-74
2022/06/04 16:55:08;;;;;;;;;;;;;;;28.32;41.64;99267.09;7865548;30;19972;-73
2022/06/04 16:59:10;;;;;;;;;;;;;;;28.07;42.53;99271.69;7865403;30;20560;-74
2022/06/04 17:03:27;;;;;;;;;;;;;;;27.84;42.72;99273.50;7865837;30;20575;-73
2022/06/04 17:07:33;;;;;;;;;;;;;;;27.66;43.20;99269.56;7868758;30;20013;-73
2022/06/04 17:11:59;;;;;;;;;;;;;;;27.51;43.99;99270.72;7871148;30;20376;-73
2022/06/04 17:16:19;;;;;;;;;;;;;;;27.35;43.48;99260.34;7868423;30;19930;-73
2022/06/04 17:20:20;;;;;;;;;;;;;;;27.25;43.63;99272.66;7875081;30;19930;-74
2022/06/04 17:24:35;;;;;;;;;;;;;;;27.07;43.37;99266.88;7874292;30;19976;-73
2022/06/04 17:28:37;;;;;;;;;;;;;;;26.95;44.20;99271.28;7866585;30;19953;-73
2022/06/04 17:32:39;;;;;;;;;;;;;;;26.80;44.37;99259.09;7870238;30;19929;-73
2022/06/04 17:36:40;;;;;;;;;;;;;;;26.68;45.12;99249.31;7866467;30;20279;-73
2022/06/04 17:41:00;;;;;;;;;;;;;;;26.56;45.49;99260.84;7869963;30;20319;-73
2022/06/04 17:45:02;;;;;;;;;;;;;;;26.45;46.41;99269.63;7868758;30;19973;-73
2022/06/04 17:49:03;;;;;;;;;;;;;;;26.29;47.32;99267.19;7868830;30;20326;-74
2022/06/04 17:53:05;;;;;;;;;;;;;;;26.18;47.26;99272.41;7866656;30;19950;-74
2022/06/04 17:57:06;;;;;;;;;;;;;;;26.06;47.59;99268.81;7869772;30;19930;-72
2022/06/04 18:01:08;;;;;;;;;;;;;;;25.97;47.64;99282.75;7867307;30;20422;-73
2022/06/04 18:05:10;;;;;;;;;;;;;;;25.85;48.58;99279.13;7867462;30;20344;-73
2022/06/04 18:09:12;;;;;;;;;;;;;;;25.78;49.17;99259.22;7870073;30;20779;-73
2022/06/04 18:13:15;;;;;;;;;;;;;;;25.71;50.28;99257.09;7850185;30;20487;-73
2022/06/04 18:17:16;;;;;;;;;;;;;;;25.68;49.97;99257.31;7852929;30;19936;-73
2022/06/04 18:21:18;;;;;;;;;;;;;;;25.62;51.04;99258.53;7869675;30;19930;-71
2022/06/04 18:25:19;;;;;;;;;;;;;;;25.49;52.15;99253.19;7869555;30;19975;-73
2022/06/04 18:29:20;;;;;;;;;;;;;;;25.38;52.95;99266.38;7862341;30;20217;-73
2022/06/04 18:33:22;;;;;;;;;;;;;;;25.16;53.99;99268.75;7863761;30;19930;-73
2022/06/04 18:37:23;;;;;;;;;;;;;;;24.91;54.62;99258.84;7870226;30;20017;-73
2022/06/04 18:41:25;;;;;;;;;;;;;;;24.72;55.24;99256.53;7868418;30;19940;-73
2022/06/04 18:54:26;;;;;;;;;;;;;;;23.74;60.10;99265.28;7864107;30;19930;-72
2022/06/04 18:58:28;;;;;;;;;;;;;;;23.44;61.88;99269.72;7862161;30;19960;-73
2022/06/04 19:02:29;;;;;;;;;;;;;;;23.20;62.42;99264.09;7867808;30;20202;-72
2022/06/04 19:06:31;;;;;;;;;;;;;;;23.00;63.23;99259.09;7866439;30;19945;-72
2022/06/04 19:14:52;;;;;;;;;;;;;;;22.58;65.37;99263.16;7867641;30;19969;-71
2022/06/04 19:18:55;;;;;;;;;;;;;;;22.41;66.29;99260.59;7867817;30;19977;-71
2022/06/04 19:27:16;;;;;;;;;;;;;;;22.03;67.42;99253.75;7862093;30;19969;-71
2022/06/04 19:31:18;;;;;;;;;;;;;;;21.87;68.47;99259.94;7862585;30;20030;-72
2022/06/04 19:35:20;;;;;;;;;;;;;;;21.68;69.27;99252.97;7866620;30;19929;-72
2022/06/04 19:39:21;;;;;;;;;;;;;;;21.48;69.21;99253.16;7866788;30;20592;-71
2022/06/04 19:43:23;;;;;;;;;;;;;;;21.38;70.07;99239.56;7870552;30;20026;-72
2022/06/04 19:47:24;;;;;;;;;;;;;;;21.27;70.78;99255.09;7866142;30;19930;-71
2022/06/04 19:51:26;;;;;;;;;;;;;;;21.23;71.22;99247.38;7863102;30;20004;-72
2022/06/04 19:55:27;;;;;;;;;;;;;;;21.32;70.63;99250.44;7866290;30;20394;-72
2022/06/04 19:59:28;;;;;;;;;;;;;;;21.45;69.90;99249.81;7864918;30;19937;-71
2022/06/04 20:03:30;;;;;;;;;;;;;;;21.55;69.57;99245.78;7846412;30;20531;-71
2022/06/04 20:07:34;;;;;;;;;;;;;;;21.63;69.03;99241.81;7850714;30;19964;-73
2022/06/04 20:11:36;;;;;;;;;;;;;;;21.66;68.88;99241.63;7865678;30;20021;-72
2022/06/04 20:15:38;;;;;;;;;;;;;;;21.65;68.58;99249.66;7861609;30;20344;-73
2022/06/04 20:19:40;;;;;;;;;;;;;;;21.60;68.96;99243.75;7859662;30;20658;-73
2022/06/04 20:23:42;;;;;;;;;;;;;;;21.55;69.43;99244.00;7858803;30;20021;-73
2022/06/04 20:27:43;;;;;;;;;;;;;;;21.48;69.73;99245.22;7852931;30;19937;-73
2022/06/04 20:31:46;;;;;;;;;;;;;;;21.50;69.23;99237.22;7853145;30;20443;-73
2022/06/04 20:35:47;;;;;;;;;;;;;;;21.49;68.98;99246.94;7852652;30;19957;-73
2022/06/04 20:39:49;;;;;;;;;;;;;;;21.50;68.42;99239.84;7858711;30;20272;-73
2022/06/04 20:43:52;;;;;;;;;;;;;;;21.52;68.01;99220.34;7856100;30;19992;-73
2022/06/04 20:47:59;;;;;;;;;;;;;;;21.52;68.00;99222.13;7854124;30;19930;-73
2022/06/04 20:52:00;;;;;;;;;;;;;;;21.47;67.98;99214.47;7854813;30;20268;-73
2022/06/04 20:56:02;;;;;;;;;;;;;;;21.45;67.38;99203.13;7844336;30;20630;-74
2022/06/04 21:00:04;;;;;;;;;;;;;;;21.49;67.01;99193.25;7857495;30;19957;-74
2022/06/04 21:04:06;;;;;;;;;;;;;;;21.50;66.88;99193.16;7854092;30;19992;-73
2022/06/04 21:08:07;;;;;;;;;;;;;;;21.54;66.76;99192.06;7854888;30;19938;-74
2022/06/04 21:12:09;;;;;;;;;;;;;;;21.54;66.75;99192.06;7851047;30;19930;-74
2022/06/04 21:16:21;;;;;;;;;;;;;;;21.52;67.04;99215.06;7825840;30;19980;-74
2022/06/04 21:20:24;;;;;;;;;;;;;;;21.50;67.12;99213.44;7852520;30;19941;-74
2022/06/04 21:24:26;;;;;;;;;;;;;;;21.40;67.71;99221.84;7850673;30;19929;-74
2022/06/04 21:28:27;;;;;;;;;;;;;;;21.33;68.19;99222.22;7852519;30;20352;-74
2022/06/04 21:32:29;;;;;;;;;;;;;;;21.23;68.87;99237.69;7862995;30;19930;-74
2022/06/04 21:40:52;;;;;;;;;;;;;;;21.03;69.98;99241.31;7869030;30;19934;-74
2022/06/04 21:44:53;;;;;;;;;;;;;;;20.95;70.58;99246.09;7870968;30;19930;-74
2022/06/04 21:48:55;;;;;;;;;;;;;;;20.92;70.61;99250.69;7866230;30;19929;-73
2022/06/04 21:52:56;;;;;;;;;;;;;;;20.99;70.73;99260.84;7868088;30;19926;-73
2022/06/04 21:56:58;;;;;;;;;;;;;;;21.08;70.55;99254.28;7869905;30;20320;-74
2022/06/04 22:01:02;;;;;;;;;;;;;;;21.15;70.42;99249.53;7870231;30;19930;-74
2022/06/04 22:05:04;;;;;;;;;;;;;;;21.24;70.05;99249.09;7869376;30;19930;-72